Time;durP1;ratioP1;P1;durP2;ratioP2;P2;SDS_P1;SDS_P2;PMS_P1;PMS_P2;Temp;Humidity;BMP_temperature;BMP_pressure;BME280_temperature;BME280_humidity;BME280_pressure;Samples;Min_cycle;Max_cycle;Signal;HPM_P1;HPM_P2
2021/12/22 00:00:22;;;;;;;85.00;17.05;;;;;;;;;;5074464;28;20602;-64
2021/12/22 00:02:50;;;;;;;79.18;17.95;;;;;;;;;;5074343;28;20224;-61
2021/12/22 00:05:18;;;;;;;86.72;19.40;;;;;;;;;;5074199;28;20209;-64
2021/12/22 00:07:45;;;;;;;91.13;18.15;;;;;;;;;;5074002;28;20213;-63
2021/12/22 00:10:13;;;;;;;86.38;18.73;;;;;;;;;;5074475;28;20225;-64
2021/12/22 00:12:40;;;;;;;76.25;16.35;;;;;;;;;;5074713;28;20207;-64
2021/12/22 00:15:08;;;;;;;77.55;17.67;;;;;;;;;;5074188;28;20227;-64
2021/12/22 00:17:36;;;;;;;78.65;16.90;;;;;;;;;;5073794;28;20311;-64
2021/12/22 00:20:04;;;;;;;79.72;16.20;;;;;;;;;;5074233;28;20229;-63
2021/12/22 00:22:31;;;;;;;86.13;18.00;;;;;;;;;;5074137;28;20227;-63
2021/12/22 00:24:58;;;;;;;82.03;15.13;;;;;;;;;;5074024;28;20236;-62
2021/12/22 00:27:25;;;;;;;79.07;16.80;;;;;;;;;;5074032;28;20716;-63
2021/12/22 00:29:53;;;;;;;79.45;16.83;;;;;;;;;;5074137;28;20232;-61
2021/12/22 00:32:21;;;;;;;83.85;18.95;;;;;;;;;;5073973;28;20208;-63
2021/12/22 00:34:53;;;;;;;83.03;15.65;;;;;;;;;;5074180;28;20331;-64
2021/12/22 00:37:22;;;;;;;82.28;17.52;;;;;;;;;;5073687;28;20578;-61
2021/12/22 00:39:50;;;;;;;87.60;17.33;;;;;;;;;;5073852;28;20228;-61
2021/12/22 00:42:17;;;;;;;77.30;13.80;;;;;;;;;;5073918;28;20589;-63
2021/12/22 00:44:46;;;;;;;81.35;17.17;;;;;;;;;;5073545;28;20205;-63
2021/12/22 00:47:13;;;;;;;77.40;16.98;;;;;;;;;;5073585;28;20247;-63
2021/12/22 00:49:40;;;;;;;77.57;15.68;;;;;;;;;;5073844;28;20225;-63
2021/12/22 00:52:09;;;;;;;77.10;17.23;;;;;;;;;;5073081;28;20204;-63
2021/12/22 00:54:36;;;;;;;75.35;15.00;;;;;;;;;;5073517;28;20292;-64
2021/12/22 00:57:05;;;;;;;78.93;15.30;;;;;;;;;;5073408;28;20205;-63
2021/12/22 00:59:33;;;;;;;73.70;13.55;;;;;;;;;;5073228;28;20205;-64
2021/12/22 01:02:00;;;;;;;79.18;15.68;;;;;;;;;;5073654;28;20657;-63
2021/12/22 01:04:27;;;;;;;79.10;15.07;;;;;;;;;;5073445;28;20212;-63
2021/12/22 01:06:54;;;;;;;79.22;14.95;;;;;;;;;;5073326;28;20205;-64
2021/12/22 01:09:23;;;;;;;78.75;16.88;;;;;;;;;;5073160;28;20293;-63
2021/12/22 01:11:50;;;;;;;91.82;15.65;;;;;;;;;;5073151;28;20673;-63
2021/12/22 01:14:18;;;;;;;76.70;15.73;;;;;;;;;;5073546;28;20221;-63
2021/12/22 01:16:48;;;;;;;82.05;16.00;;;;;;;;;;5073334;28;20205;-64
2021/12/22 01:19:20;;;;;;;81.05;15.15;;;;;;;;;;5072818;28;20259;-61
2021/12/22 01:21:52;;;;;;;74.57;13.10;;;;;;;;;;5072977;28;20232;-63
2021/12/22 01:24:29;;;;;;;73.97;15.13;;;;;;;;;;5072677;28;20570;-63
2021/12/22 01:27:04;;;;;;;82.90;15.27;;;;;;;;;;5073189;28;20208;-63
2021/12/22 01:29:32;;;;;;;77.38;14.68;;;;;;;;;;5072702;28;20208;-63
2021/12/22 01:32:00;;;;;;;75.28;15.35;;;;;;;;;;5072766;28;20627;-64
2021/12/22 01:34:27;;;;;;;70.90;13.98;;;;;;;;;;5072762;28;20215;-64
2021/12/22 01:36:55;;;;;;;80.47;15.55;;;;;;;;;;5072412;28;20291;-62
2021/12/22 01:39:22;;;;;;;77.68;14.65;;;;;;;;;;5072424;28;20205;-64
2021/12/22 01:41:49;;;;;;;72.70;14.60;;;;;;;;;;5072446;28;20211;-64
2021/12/22 01:44:26;;;;;;;79.22;14.85;;;;;;;;;;5072427;28;20295;-63
2021/12/22 01:49:43;;;;;;;76.10;13.80;;;;;;;;;;5072528;28;20719;-63
2021/12/22 01:52:10;;;;;;;80.75;16.15;;;;;;;;;;5072714;28;20575;-63
2021/12/22 01:54:40;;;;;;;83.03;15.90;;;;;;;;;;5072525;28;20573;-64
2021/12/22 01:57:10;;;;;;;78.20;15.27;;;;;;;;;;5072444;28;20314;-66
2021/12/22 01:59:40;;;;;;;76.85;14.00;;;;;;;;;;5072459;28;20248;-64
2021/12/22 02:02:07;;;;;;;71.85;12.63;;;;;;;;;;5072016;28;20227;-63
2021/12/22 02:04:35;;;;;;;75.15;14.20;;;;;;;;;;5071286;28;20200;-63
2021/12/22 02:07:03;;;;;;;79.25;15.75;;;;;;;;;;5072059;28;20299;-63
2021/12/22 02:09:48;;;;;;;83.05;15.48;;;;;;;;;;5071161;28;20760;-62
2021/12/22 02:12:15;;;;;;;75.55;13.35;;;;;;;;;;5072459;28;20205;-63
2021/12/22 02:14:45;;;;;;;74.05;13.02;;;;;;;;;;5072079;28;20231;-64
2021/12/22 02:17:13;;;;;;;84.85;14.38;;;;;;;;;;5071660;28;20212;-63
2021/12/22 02:19:42;;;;;;;77.13;14.88;;;;;;;;;;5071902;28;20227;-64
2021/12/22 02:22:12;;;;;;;72.80;12.38;;;;;;;;;;5072103;28;20205;-62
2021/12/22 02:24:40;;;;;;;72.80;13.88;;;;;;;;;;5071748;28;20208;-62
2021/12/22 02:27:13;;;;;;;75.97;14.43;;;;;;;;;;5071908;28;20208;-63
2021/12/22 02:29:46;;;;;;;77.60;16.27;;;;;;;;;;5071866;28;20225;-63
2021/12/22 02:32:26;;;;;;;75.63;14.77;;;;;;;;;;5071821;28;20205;-63
2021/12/22 02:35:01;;;;;;;72.80;12.88;;;;;;;;;;5071720;28;20205;-62
2021/12/22 02:37:29;;;;;;;83.55;14.65;;;;;;;;;;5071660;28;20208;-63
2021/12/22 02:40:00;;;;;;;79.25;14.85;;;;;;;;;;5071880;28;20225;-62
2021/12/22 02:42:29;;;;;;;76.07;13.23;;;;;;;;;;5071711;28;20278;-63
2021/12/22 02:44:56;;;;;;;73.57;14.27;;;;;;;;;;5071474;28;20205;-63
2021/12/22 02:47:26;;;;;;;76.32;14.88;;;;;;;;;;5071638;28;20207;-63
2021/12/22 02:49:53;;;;;;;74.55;13.50;;;;;;;;;;5071579;28;20229;-63
2021/12/22 02:52:22;;;;;;;78.82;13.77;;;;;;;;;;5071772;28;20215;-63
2021/12/22 02:54:54;;;;;;;69.30;12.63;;;;;;;;;;5071562;28;20213;-64
2021/12/22 02:57:29;;;;;;;76.60;13.52;;;;;;;;;;5071298;28;20247;-64
2021/12/22 03:00:28;;;;;;;73.03;13.23;;;;;;;;;;5071538;28;20260;-64
2021/12/22 03:03:05;;;;;;;75.78;13.73;;;;;;;;;;5071596;28;20697;-64
2021/12/22 03:05:34;;;;;;;75.18;14.23;;;;;;;;;;5071412;28;20626;-63
2021/12/22 03:08:02;;;;;;;71.38;13.23;;;;;;;;;;5071399;28;20357;-63
2021/12/22 03:10:29;;;;;;;70.60;13.27;;;;;;;;;;5071616;28;20325;-65
2021/12/22 03:13:02;;;;;;;68.88;12.20;;;;;;;;;;5071533;28;20704;-63
2021/12/22 03:15:29;;;;;;;73.72;13.30;;;;;;;;;;5073481;28;20205;-64
2021/12/22 03:17:57;;;;;;;75.20;13.45;;;;;;;;;;5075094;28;20215;-63
2021/12/22 03:20:24;;;;;;;71.18;13.00;;;;;;;;;;5075171;28;20315;-64
2021/12/22 03:22:52;;;;;;;75.90;12.30;;;;;;;;;;5075214;28;20311;-63
2021/12/22 03:25:25;;;;;;;74.95;14.90;;;;;;;;;;5075159;28;20259;-62
2021/12/22 03:27:53;;;;;;;72.00;13.25;;;;;;;;;;5074931;28;20213;-63
2021/12/22 03:30:22;;;;;;;78.05;13.80;;;;;;;;;;5074972;28;20312;-65
2021/12/22 03:32:49;;;;;;;74.78;13.68;;;;;;;;;;5075015;28;20209;-63
2021/12/22 03:35:19;;;;;;;71.25;13.45;;;;;;;;;;5074898;28;20295;-64
2021/12/22 03:37:46;;;;;;;73.47;12.70;;;;;;;;;;5074853;28;20201;-61
2021/12/22 03:40:13;;;;;;;80.57;13.05;;;;;;;;;;5074916;28;20261;-63
2021/12/22 03:42:42;;;;;;;72.45;13.52;;;;;;;;;;5074839;28;20232;-64
2021/12/22 03:45:10;;;;;;;73.40;12.32;;;;;;;;;;5074684;28;20300;-64
2021/12/22 03:47:37;;;;;;;77.13;14.20;;;;;;;;;;5074743;28;20296;-64
2021/12/22 03:50:05;;;;;;;74.90;12.40;;;;;;;;;;5074771;28;20656;-63
2021/12/22 03:52:32;;;;;;;71.85;13.88;;;;;;;;;;5074822;28;20237;-62
2021/12/22 03:54:59;;;;;;;77.30;12.90;;;;;;;;;;5074688;28;20215;-63
2021/12/22 03:57:26;;;;;;;70.45;13.50;;;;;;;;;;5074394;28;20721;-63
2021/12/22 03:59:57;;;;;;;70.10;13.00;;;;;;;;;;5074338;28;20324;-64
2021/12/22 04:02:25;;;;;;;70.78;12.88;;;;;;;;;;5074868;28;20205;-63
2021/12/22 04:04:52;;;;;;;70.00;12.20;;;;;;;;;;5074550;28;20647;-63
2021/12/22 04:07:19;;;;;;;75.88;12.90;;;;;;;;;;5074084;28;20209;-65
2021/12/22 04:09:47;;;;;;;77.35;12.73;;;;;;;;;;5074672;28;20244;-63
2021/12/22 04:12:14;;;;;;;75.25;12.93;;;;;;;;;;5074345;28;20591;-63
2021/12/22 04:14:41;;;;;;;81.60;13.27;;;;;;;;;;5074226;28;20683;-64
2021/12/22 04:17:10;;;;;;;74.38;12.77;;;;;;;;;;5074255;28;20584;-63
2021/12/22 04:19:37;;;;;;;73.80;12.50;;;;;;;;;;5074348;28;20205;-62
2021/12/22 04:22:06;;;;;;;73.45;13.88;;;;;;;;;;5074281;28;20211;-63
2021/12/22 04:24:33;;;;;;;72.15;12.18;;;;;;;;;;5073989;28;20236;-63
2021/12/22 04:27:00;;;;;;;71.80;12.10;;;;;;;;;;5073753;28;20209;-63
2021/12/22 04:29:27;;;;;;;72.13;11.93;;;;;;;;;;5073879;28;20604;-64
2021/12/22 04:31:55;;;;;;;74.18;12.05;;;;;;;;;;5074148;28;20207;-63
2021/12/22 04:34:23;;;;;;;77.43;13.10;;;;;;;;;;5073912;28;20202;-64
2021/12/22 04:36:50;;;;;;;74.75;12.20;;;;;;;;;;5073941;28;20204;-63
2021/12/22 04:39:17;;;;;;;75.47;12.60;;;;;;;;;;5073569;28;20300;-63
2021/12/22 04:41:44;;;;;;;75.40;12.60;;;;;;;;;;5073976;28;20227;-64
2021/12/22 04:44:12;;;;;;;74.45;12.90;;;;;;;;;;5073844;28;20324;-64
2021/12/22 04:46:39;;;;;;;74.88;13.93;;;;;;;;;;5073845;28;20230;-64
2021/12/22 04:49:06;;;;;;;72.38;12.65;;;;;;;;;;5073447;28;20204;-61
2021/12/22 04:51:36;;;;;;;72.80;13.05;;;;;;;;;;5073527;28;20720;-64
2021/12/22 04:54:14;;;;;;;73.05;13.02;;;;;;;;;;5073567;28;20326;-64
2021/12/22 04:56:41;;;;;;;72.18;14.05;;;;;;;;;;5073763;28;20201;-64
2021/12/22 04:59:08;;;;;;;80.85;13.98;;;;;;;;;;5073261;28;20227;-61
2021/12/22 05:01:35;;;;;;;73.60;12.63;;;;;;;;;;5073418;28;20595;-64
2021/12/22 05:04:02;;;;;;;74.70;12.73;;;;;;;;;;5073307;28;20398;-64
2021/12/22 05:06:29;;;;;;;73.78;13.55;;;;;;;;;;5073331;28;20638;-64
2021/12/22 05:08:58;;;;;;;72.93;13.57;;;;;;;;;;5072971;28;20669;-64
2021/12/22 05:11:25;;;;;;;72.18;13.15;;;;;;;;;;5073181;28;20708;-64
2021/12/22 05:13:52;;;;;;;72.53;12.18;;;;;;;;;;5073322;28;20201;-64
2021/12/22 05:16:19;;;;;;;75.32;12.95;;;;;;;;;;5073209;28;20208;-63
2021/12/22 05:18:57;;;;;;;79.97;13.57;;;;;;;;;;5072794;28;20298;-61
2021/12/22 05:21:25;;;;;;;71.07;12.43;;;;;;;;;;5073359;28;20512;-64
2021/12/22 05:23:52;;;;;;;71.43;12.90;;;;;;;;;;5072965;28;20229;-63
2021/12/22 05:26:21;;;;;;;70.13;11.65;;;;;;;;;;5072767;28;20205;-64
2021/12/22 05:28:48;;;;;;;71.80;13.00;;;;;;;;;;5072514;28;20304;-63
2021/12/22 05:31:15;;;;;;;71.60;12.07;;;;;;;;;;5072614;28;20312;-62
2021/12/22 05:33:43;;;;;;;71.53;12.63;;;;;;;;;;5072938;28;20292;-63
2021/12/22 05:36:10;;;;;;;72.65;12.23;;;;;;;;;;5072845;28;20201;-64
2021/12/22 05:38:37;;;;;;;70.65;11.60;;;;;;;;;;5072458;28;20299;-64
2021/12/22 05:41:05;;;;;;;77.30;12.57;;;;;;;;;;5072644;28;20679;-64
2021/12/22 05:43:33;;;;;;;71.15;11.93;;;;;;;;;;5072640;28;20221;-64
2021/12/22 05:46:00;;;;;;;72.72;13.63;;;;;;;;;;5072497;28;20211;-64
2021/12/22 05:48:28;;;;;;;74.78;14.02;;;;;;;;;;5072251;28;20209;-65
2021/12/22 05:50:57;;;;;;;72.05;13.60;;;;;;;;;;5072548;28;20243;-64
2021/12/22 05:53:25;;;;;;;71.60;11.90;;;;;;;;;;5072398;28;20669;-64
2021/12/22 05:55:52;;;;;;;75.85;13.73;;;;;;;;;;5072320;28;20295;-65
2021/12/22 05:58:19;;;;;;;72.85;12.88;;;;;;;;;;5072019;28;20301;-65
2021/12/22 06:00:47;;;;;;;74.40;13.93;;;;;;;;;;5072198;28;20252;-64
2021/12/22 06:03:15;;;;;;;73.03;12.20;;;;;;;;;;5072405;28;20296;-64
2021/12/22 06:05:42;;;;;;;69.88;13.20;;;;;;;;;;5072213;28;20205;-65
2021/12/22 06:08:10;;;;;;;71.32;12.55;;;;;;;;;;5071933;28;20216;-64
2021/12/22 06:10:37;;;;;;;71.03;12.15;;;;;;;;;;5072225;28;20312;-64
2021/12/22 06:13:04;;;;;;;80.22;14.45;;;;;;;;;;5072100;28;20371;-64
2021/12/22 06:15:31;;;;;;;80.10;13.68;;;;;;;;;;5072357;28;20204;-64
2021/12/22 06:18:01;;;;;;;75.80;14.32;;;;;;;;;;5072021;28;20201;-64
2021/12/22 06:20:29;;;;;;;75.47;14.80;;;;;;;;;;5072331;28;20585;-63
2021/12/22 06:22:56;;;;;;;73.18;13.77;;;;;;;;;;5072244;28;20295;-63
2021/12/22 06:25:24;;;;;;;79.85;16.58;;;;;;;;;;5072193;28;20568;-64
2021/12/22 06:27:51;;;;;;;83.80;17.17;;;;;;;;;;5071532;28;20217;-64
2021/12/22 06:30:20;;;;;;;84.70;17.83;;;;;;;;;;5071955;28;20798;-64
2021/12/22 06:32:47;;;;;;;82.30;15.50;;;;;;;;;;5072011;28;20205;-65
2021/12/22 06:35:16;;;;;;;75.53;12.25;;;;;;;;;;5071642;28;20763;-64
2021/12/22 06:37:44;;;;;;;77.05;14.10;;;;;;;;;;5071610;28;20254;-64
2021/12/22 06:40:12;;;;;;;78.75;16.35;;;;;;;;;;5071470;28;20603;-65
2021/12/22 06:42:39;;;;;;;78.28;13.38;;;;;;;;;;5072012;28;20205;-61
2021/12/22 06:45:07;;;;;;;73.35;12.68;;;;;;;;;;5071726;28;20657;-65
2021/12/22 06:47:34;;;;;;;74.63;13.70;;;;;;;;;;5071439;28;20209;-63
2021/12/22 06:50:01;;;;;;;74.30;14.65;;;;;;;;;;5071112;28;20225;-64
2021/12/22 06:52:30;;;;;;;70.80;13.05;;;;;;;;;;5071861;28;20211;-63
2021/12/22 06:54:57;;;;;;;83.18;14.98;;;;;;;;;;5071515;28;20211;-64
2021/12/22 06:57:24;;;;;;;72.55;12.45;;;;;;;;;;5071634;28;20215;-63
2021/12/22 06:59:51;;;;;;;76.30;13.68;;;;;;;;;;5071689;28;20328;-63
2021/12/22 07:02:18;;;;;;;76.38;15.35;;;;;;;;;;5071648;28;20201;-64
2021/12/22 07:04:46;;;;;;;74.32;13.98;;;;;;;;;;5071442;28;20311;-65
2021/12/22 07:07:13;;;;;;;71.20;12.98;;;;;;;;;;5071132;28;20254;-63
2021/12/22 07:09:41;;;;;;;70.80;12.82;;;;;;;;;;5071531;28;20239;-64
2021/12/22 07:12:10;;;;;;;74.53;13.50;;;;;;;;;;5071580;28;20296;-64
2021/12/22 07:14:37;;;;;;;70.05;12.32;;;;;;;;;;5071474;28;20293;-64
2021/12/22 07:17:05;;;;;;;74.95;14.88;;;;;;;;;;5071483;28;20291;-67
2021/12/22 07:19:32;;;;;;;74.53;14.05;;;;;;;;;;5071111;28;20297;-66
2021/12/22 07:21:59;;;;;;;78.30;14.65;;;;;;;;;;5071574;28;20205;-64
2021/12/22 07:24:26;;;;;;;81.07;15.23;;;;;;;;;;5071347;28;20320;-65
2021/12/22 07:26:55;;;;;;;77.05;15.10;;;;;;;;;;5071174;28;20673;-65
2021/12/22 07:29:22;;;;;;;74.72;13.88;;;;;;;;;;5071059;28;20292;-64
2021/12/22 07:31:49;;;;;;;74.75;13.73;;;;;;;;;;5071320;28;20204;-64
2021/12/22 07:34:17;;;;;;;74.90;13.43;;;;;;;;;;5071212;28;20585;-63
2021/12/22 07:36:48;;;;;;;73.80;12.85;;;;;;;;;;5071347;28;20312;-65
2021/12/22 07:39:15;;;;;;;77.00;16.20;;;;;;;;;;5071088;28;20205;-64
2021/12/22 07:41:42;;;;;;;76.05;14.93;;;;;;;;;;5071218;28;20232;-64
2021/12/22 07:44:10;;;;;;;81.60;14.55;;;;;;;;;;5071220;28;20568;-64
2021/12/22 07:46:38;;;;;;;75.82;13.77;;;;;;;;;;5071057;28;20227;-63
2021/12/22 07:49:05;;;;;;;74.30;13.10;;;;;;;;;;5070738;28;20288;-64
2021/12/22 07:51:32;;;;;;;71.88;12.52;;;;;;;;;;5071239;28;20557;-64
2021/12/22 07:54:00;;;;;;;72.88;13.80;;;;;;;;;;5071008;28;20201;-64
2021/12/22 07:56:27;;;;;;;73.63;13.50;;;;;;;;;;5071422;28;20208;-64
2021/12/22 07:58:54;;;;;;;78.15;15.00;;;;;;;;;;5071535;28;20208;-64
2021/12/22 08:01:23;;;;;;;78.43;14.05;;;;;;;;;;5071118;28;20719;-64
2021/12/22 08:03:50;;;;;;;70.63;12.82;;;;;;;;;;5074753;28;20576;-64
2021/12/22 08:06:17;;;;;;;82.75;15.52;;;;;;;;;;5074708;28;20644;-64
2021/12/22 08:08:44;;;;;;;78.43;15.52;;;;;;;;;;5074167;28;20205;-64
2021/12/22 08:11:12;;;;;;;85.65;17.33;;;;;;;;;;5074364;28;20235;-64
2021/12/22 08:13:39;;;;;;;74.43;14.70;;;;;;;;;;5074342;28;20205;-64
2021/12/22 08:16:06;;;;;;;84.38;16.55;;;;;;;;;;5074114;28;20212;-65
2021/12/22 08:18:34;;;;;;;76.78;14.57;;;;;;;;;;5073978;28;20677;-64
2021/12/22 08:21:02;;;;;;;75.40;13.60;;;;;;;;;;5074323;28;20227;-65
2021/12/22 08:23:29;;;;;;;73.43;12.73;;;;;;;;;;5074367;28;20207;-65
2021/12/22 08:25:56;;;;;;;78.15;16.42;;;;;;;;;;5074135;28;20231;-65
2021/12/22 08:28:23;;;;;;;76.32;15.95;;;;;;;;;;5073790;28;20209;-64
2021/12/22 08:30:50;;;;;;;78.63;14.07;;;;;;;;;;5073901;28;20321;-65
2021/12/22 08:33:22;;;;;;;78.10;16.42;;;;;;;;;;5073991;28;20300;-64
2021/12/22 08:38:51;;;;;;;78.55;16.38;;;;;;;;;;5073611;28;20576;-64
2021/12/22 08:41:18;;;;;;;76.13;14.13;;;;;;;;;;5073965;28;20224;-65
2021/12/22 08:43:45;;;;;;;76.65;17.25;;;;;;;;;;5074008;28;20215;-63
2021/12/22 08:46:13;;;;;;;74.85;14.68;;;;;;;;;;5073742;28;20231;-64
2021/12/22 08:48:40;;;;;;;80.03;16.30;;;;;;;;;;5073453;28;20557;-64
2021/12/22 08:51:09;;;;;;;81.97;16.83;;;;;;;;;;5073733;28;20225;-64
2021/12/22 08:53:36;;;;;;;82.43;16.20;;;;;;;;;;5073508;28;20207;-64
2021/12/22 08:56:03;;;;;;;82.63;16.90;;;;;;;;;;5073733;28;20581;-64
2021/12/22 08:58:30;;;;;;;78.57;16.30;;;;;;;;;;5073355;28;20587;-61
2021/12/22 09:00:57;;;;;;;78.55;16.27;;;;;;;;;;5073415;28;20221;-64
2021/12/22 09:03:24;;;;;;;77.65;16.75;;;;;;;;;;5073361;28;20728;-64
2021/12/22 09:05:51;;;;;;;85.85;17.35;;;;;;;;;;5073227;28;20221;-64
2021/12/22 09:08:20;;;;;;;83.25;18.52;;;;;;;;;;5073166;28;20297;-64
2021/12/22 09:10:47;;;;;;;80.00;17.63;;;;;;;;;;5073368;28;20602;-65
2021/12/22 09:13:15;;;;;;;81.63;17.58;;;;;;;;;;5072840;28;20312;-64
2021/12/22 09:15:42;;;;;;;79.00;17.52;;;;;;;;;;5073192;28;20205;-64
2021/12/22 09:18:10;;;;;;;74.85;16.27;;;;;;;;;;5072837;28;20208;-64
2021/12/22 09:20:37;;;;;;;81.93;16.40;;;;;;;;;;5073087;28;20316;-64
2021/12/22 09:23:04;;;;;;;79.63;17.05;;;;;;;;;;5073306;28;20205;-63
2021/12/22 09:25:33;;;;;;;80.90;17.90;;;;;;;;;;5072697;28;20232;-64
2021/12/22 09:28:00;;;;;;;78.93;19.23;;;;;;;;;;5072591;28;20208;-63
2021/12/22 09:30:29;;;;;;;86.57;20.02;;;;;;;;;;5072866;28;20316;-65
2021/12/22 09:32:56;;;;;;;80.25;16.33;;;;;;;;;;5073156;28;20262;-64
2021/12/22 09:35:23;;;;;;;78.85;18.27;;;;;;;;;;5072856;28;20200;-64
2021/12/22 09:37:50;;;;;;;87.13;21.33;;;;;;;;;;5072631;28;20596;-64
2021/12/22 09:40:17;;;;;;;82.60;17.90;;;;;;;;;;5072776;28;20232;-64
2021/12/22 09:42:46;;;;;;;86.47;20.58;;;;;;;;;;5072717;28;20208;-63
2021/12/22 09:45:15;;;;;;;85.75;20.40;;;;;;;;;;5072536;28;20221;-62
2021/12/22 09:47:59;;;;;;;89.13;19.35;;;;;;;;;;5072183;28;20267;-65
2021/12/22 09:50:43;;;;;;;89.28;19.48;;;;;;;;;;5072608;28;20231;-64
2021/12/22 09:53:11;;;;;;;81.95;20.25;;;;;;;;;;5072810;28;20209;-64
2021/12/22 09:55:38;;;;;;;92.53;20.77;;;;;;;;;;5072332;28;20205;-64
2021/12/22 09:58:09;;;;;;;81.60;19.20;;;;;;;;;;5071992;28;20209;-64
2021/12/22 10:00:36;;;;;;;86.55;20.70;;;;;;;;;;5072633;28;20225;-66
2021/12/22 10:03:04;;;;;;;87.43;20.23;;;;;;;;;;5072394;28;20291;-64
2021/12/22 10:05:31;;;;;;;85.00;19.05;;;;;;;;;;5072067;28;20225;-64
2021/12/22 10:08:08;;;;;;;84.20;20.10;;;;;;;;;;5072124;28;20305;-64
2021/12/22 10:10:37;;;;;;;82.55;19.42;;;;;;;;;;5071950;28;20271;-65
2021/12/22 10:13:10;;;;;;;85.30;19.30;;;;;;;;;;5072065;28;20205;-62
2021/12/22 10:15:37;;;;;;;80.32;18.52;;;;;;;;;;5072013;28;20699;-63
2021/12/22 10:18:11;;;;;;;84.43;17.65;;;;;;;;;;5071866;28;20201;-62
2021/12/22 10:20:39;;;;;;;82.55;17.15;;;;;;;;;;5071940;28;20229;-62
2021/12/22 10:23:19;;;;;;;76.60;16.40;;;;;;;;;;5071926;28;20240;-64
2021/12/22 10:25:51;;;;;;;79.65;16.92;;;;;;;;;;5071376;28;20512;-63
2021/12/22 10:28:19;;;;;;;77.38;15.82;;;;;;;;;;5071773;28;20292;-63
2021/12/22 10:30:48;;;;;;;74.65;15.80;;;;;;;;;;5071939;28;20225;-63
2021/12/22 10:33:16;;;;;;;74.55;14.57;;;;;;;;;;5071833;28;20690;-64
2021/12/22 10:35:45;;;;;;;75.40;14.98;;;;;;;;;;5071585;28;20606;-65
2021/12/22 10:38:13;;;;;;;77.68;16.45;;;;;;;;;;5071721;28;20243;-63
2021/12/22 10:40:42;;;;;;;77.97;15.85;;;;;;;;;;5071751;28;20234;-63
2021/12/22 10:43:15;;;;;;;70.07;12.43;;;;;;;;;;5071837;28;20296;-63
2021/12/22 10:45:46;;;;;;;72.43;13.00;;;;;;;;;;5071656;28;20855;-63
2021/12/22 10:51:00;;;;;;;73.93;13.97;;;;;;;;;;5071811;28;20489;-64
2021/12/22 10:53:27;;;;;;;71.60;13.17;;;;;;;;;;5071740;28;20444;-64
2021/12/22 10:55:57;;;;;;;74.43;14.20;;;;;;;;;;5071667;28;20865;-63
2021/12/22 10:58:26;;;;;;;72.97;14.02;;;;;;;;;;5071216;28;20212;-64
2021/12/22 11:01:07;;;;;;;81.70;16.03;;;;;;;;;;5071822;28;20236;-63
2021/12/22 11:03:36;;;;;;;74.43;13.63;;;;;;;;;;5071814;28;20455;-64
2021/12/22 11:06:11;;;;;;;77.97;14.80;;;;;;;;;;5071487;28;20511;-63
2021/12/22 11:08:39;;;;;;;72.93;13.77;;;;;;;;;;5071221;28;20535;-64
2021/12/22 11:11:15;;;;;;;77.30;15.40;;;;;;;;;;5071296;28;20841;-64
2021/12/22 11:13:43;;;;;;;74.87;15.20;;;;;;;;;;5071469;28;20453;-64
2021/12/22 11:16:14;;;;;;;74.53;13.83;;;;;;;;;;5071391;28;20476;-63
2021/12/22 11:18:41;;;;;;;73.40;12.80;;;;;;;;;;5071039;28;20454;-63
2021/12/22 11:21:10;;;;;;;72.47;12.80;;;;;;;;;;5071624;28;21136;-63
2021/12/22 11:23:37;;;;;;;71.90;13.57;;;;;;;;;;5071078;28;20970;-63
2021/12/22 11:26:05;;;;;;;73.87;14.17;;;;;;;;;;5071400;28;20868;-64
2021/12/22 11:28:33;;;;;;;75.87;14.30;;;;;;;;;;5071136;28;20868;-63
2021/12/22 11:31:02;;;;;;;69.50;12.63;;;;;;;;;;5071257;28;20478;-64
2021/12/22 11:33:30;;;;;;;73.93;14.00;;;;;;;;;;5071237;28;20546;-63
2021/12/22 11:35:58;;;;;;;73.97;13.97;;;;;;;;;;5072360;28;20452;-63
2021/12/22 11:38:26;;;;;;;71.57;12.60;;;;;;;;;;5075014;28;20528;-63
2021/12/22 11:40:56;;;;;;;71.97;12.90;;;;;;;;;;5075088;28;20474;-64
2021/12/22 11:43:24;;;;;;;72.60;12.53;;;;;;;;;;5075288;28;20514;-63
2021/12/22 11:45:52;;;;;;;72.57;13.83;;;;;;;;;;5074873;28;20483;-63
2021/12/22 11:48:19;;;;;;;71.73;13.10;;;;;;;;;;5074538;28;20439;-65
2021/12/22 11:50:48;;;;;;;74.00;13.80;;;;;;;;;;5074692;28;20471;-63
2021/12/22 11:53:16;;;;;;;74.20;15.33;;;;;;;;;;5074687;28;20443;-65
2021/12/22 11:55:44;;;;;;;73.20;14.50;;;;;;;;;;5074827;28;20848;-64
2021/12/22 11:58:16;;;;;;;71.70;13.57;;;;;;;;;;5074563;28;20804;-63
2021/12/22 12:00:45;;;;;;;72.90;15.07;;;;;;;;;;5075043;28;20832;-65
2021/12/22 12:03:21;;;;;;;73.03;13.73;;;;;;;;;;5074393;28;20886;-64
2021/12/22 12:06:03;;;;;;;77.90;14.20;;;;;;;;;;5074401;28;20569;-65
2021/12/22 12:08:35;;;;;;;74.00;13.50;;;;;;;;;;5074323;28;20451;-64
2021/12/22 12:11:02;;;;;;;74.10;15.00;;;;;;;;;;5074368;28;20467;-64
2021/12/22 12:13:37;;;;;;;72.03;13.67;;;;;;;;;;5074300;28;20532;-63
2021/12/22 12:22:00;;;;;;;72.13;13.50;;;;;;;;;;5074247;28;20477;-64
2021/12/22 12:24:33;;;;;;;73.37;14.07;;;;;;;;;;5074165;28;21042;-64
2021/12/22 12:27:01;;;;;;;74.60;13.50;;;;;;;;;;5074071;28;20486;-64
2021/12/22 12:29:43;;;;;;;73.70;14.83;;;;;;;;;;5073870;28;20474;-64
2021/12/22 12:32:10;;;;;;;76.77;14.20;;;;;;;;;;5074022;28;20458;-64
2021/12/22 12:34:40;;;;;;;73.27;14.57;;;;;;;;;;5074269;28;20446;-64
2021/12/22 12:37:11;;;;;;;71.20;14.10;;;;;;;;;;5074274;28;20436;-66
2021/12/22 12:39:54;;;;;;;72.30;14.70;;;;;;;;;;5073985;28;20498;-64
2021/12/22 12:42:21;;;;;;;71.03;13.77;;;;;;;;;;5073976;28;20440;-64
2021/12/22 12:44:48;;;;;;;70.57;12.97;;;;;;;;;;5073621;28;20451;-64
2021/12/22 12:47:19;;;;;;;73.23;14.30;;;;;;;;;;5072868;28;20481;-64
2021/12/22 12:49:46;;;;;;;71.60;14.03;;;;;;;;;;5073867;28;20505;-64
2021/12/22 12:52:28;;;;;;;72.30;14.00;;;;;;;;;;5073742;28;20525;-64
2021/12/22 12:55:11;;;;;;;72.37;13.90;;;;;;;;;;5073503;28;20456;-64
2021/12/22 12:57:38;;;;;;;74.57;13.83;;;;;;;;;;5073719;28;20455;-64
2021/12/22 13:00:07;;;;;;;73.43;13.90;;;;;;;;;;5073728;28;20471;-64
2021/12/22 13:02:35;;;;;;;73.10;13.90;;;;;;;;;;5073656;28;21019;-64
2021/12/22 13:05:05;;;;;;;70.33;13.13;;;;;;;;;;5073539;28;20536;-64
2021/12/22 13:07:34;;;;;;;72.00;13.27;;;;;;;;;;5073686;28;20998;-63
2021/12/22 13:10:03;;;;;;;71.10;12.87;;;;;;;;;;5073154;28;20505;-63
2021/12/22 13:12:36;;;;;;;70.47;13.20;;;;;;;;;;5073495;28;20486;-64
2021/12/22 13:17:50;;;;;;;70.00;13.13;;;;;;;;;;5072996;28;20439;-65
2021/12/22 13:20:18;;;;;;;72.10;13.70;;;;;;;;;;5072940;28;20467;-65
2021/12/22 13:22:48;;;;;;;73.07;13.33;;;;;;;;;;5073277;28;20449;-64
2021/12/22 13:25:17;;;;;;;73.37;13.43;;;;;;;;;;5072876;28;20555;-65
2021/12/22 13:27:46;;;;;;;73.70;13.37;;;;;;;;;;5072687;28;20452;-64
2021/12/22 13:30:15;;;;;;;67.70;11.67;;;;;;;;;;5072946;28;21051;-63
2021/12/22 13:32:55;;;;;;;70.33;13.10;;;;;;;;;;5072786;28;20554;-65
2021/12/22 13:35:29;;;;;;;74.20;13.77;;;;;;;;;;5072977;28;20535;-63
2021/12/22 13:37:58;;;;;;;69.07;12.60;;;;;;;;;;5072586;28;20538;-64
2021/12/22 13:40:39;;;;;;;72.60;12.03;;;;;;;;;;5072420;28;20470;-64
2021/12/22 13:43:06;;;;;;;72.47;14.33;;;;;;;;;;5070768;28;20465;-65
2021/12/22 13:45:35;;;;;;;71.30;13.40;;;;;;;;;;5070967;28;20542;-65
2021/12/22 13:48:03;;;;;;;75.17;15.63;;;;;;;;;;5070655;28;21014;-66
2021/12/22 13:50:30;;;;;;;71.97;14.10;;;;;;;;;;5070917;28;20852;-66
2021/12/22 13:52:59;;;;;;;71.90;13.80;;;;;;;;;;5070843;28;20443;-65
2021/12/22 13:55:26;;;;;;;72.10;14.03;;;;;;;;;;5070613;28;20458;-65
2021/12/22 13:57:53;;;;;;;72.53;13.73;;;;;;;;;;5071751;28;20820;-65
2021/12/22 14:00:21;;;;;;;69.17;12.93;;;;;;;;;;5072200;28;21008;-66
2021/12/22 14:02:48;;;;;;;75.30;14.53;;;;;;;;;;5072544;28;20473;-62
2021/12/22 14:05:16;;;;;;;75.30;14.60;;;;;;;;;;5072318;28;20456;-62
2021/12/22 14:07:43;;;;;;;72.97;14.00;;;;;;;;;;5071941;28;20489;-63
2021/12/22 14:10:13;;;;;;;74.30;13.57;;;;;;;;;;5072098;28;20467;-62
2021/12/22 14:12:42;;;;;;;80.70;18.47;;;;;;;;;;5072142;28;20454;-65
2021/12/22 14:15:10;;;;;;;125.87;42.33;;;;;;;;;;5072192;28;20575;-65
2021/12/22 14:17:40;;;;;;;79.60;16.03;;;;;;;;;;5071922;28;20439;-66
2021/12/22 14:20:10;;;;;;;76.73;15.20;;;;;;;;;;5072106;28;20471;-66
2021/12/22 14:22:38;;;;;;;74.90;15.07;;;;;;;;;;5072048;28;20532;-65
2021/12/22 14:25:13;;;;;;;73.37;13.53;;;;;;;;;;5071928;28;21054;-65
2021/12/22 14:27:43;;;;;;;75.03;15.20;;;;;;;;;;5072069;28;20528;-65
2021/12/22 14:30:21;;;;;;;73.30;13.73;;;;;;;;;;5072004;28;20502;-65
2021/12/22 14:32:54;;;;;;;71.27;13.43;;;;;;;;;;5071939;28;20463;-64
2021/12/22 14:35:21;;;;;;;74.30;12.70;;;;;;;;;;5071776;28;20534;-63
2021/12/22 14:37:56;;;;;;;75.80;13.60;;;;;;;;;;5071722;28;20441;-64
2021/12/22 14:40:24;;;;;;;73.20;13.35;;;;;;;;;;5071947;28;20314;-64
2021/12/22 14:43:00;;;;;;;73.10;13.70;;;;;;;;;;5072168;28;20662;-64